Terminal Aerodrome Forecast
Issued by NWS Grand Forks, ND

Home | Current Version | Previous Version | Text Only | Print | Product List | Glossary On
Versions: 1 2 3 4 5 6 7 8 9 10 11 12 13
000
FTUS43 KFGF 200500
TAFFAR
TAF
KFAR 200522Z 2006/2106 18006KT P6SM OVC010
      TEMPO 2008/2011 2SM BR OVC006
     FM201100 VRB02KT 2SM BR OVC003
      TEMPO 2011/2014 1SM BR
     FM202000 16007KT P6SM OVC008=

USA.gov is the U.S. government's official web portal to all federal, state and local government web resources and services.